Time;durP1;ratioP1;P1;durP2;ratioP2;P2;SDS_P1;SDS_P2;PMS_P1;PMS_P2;Temp;Humidity;BMP_temperature;BMP_pressure;BME280_temperature;BME280_humidity;BME280_pressure;Samples;Min_cycle;Max_cycle;Signal;HPM_P1;HPM_P2
2023/12/12 00:01:34;;;;;;;;;;;;;;;3.77;93.69;94983.13;5113396;28;1044;-63
2023/12/12 00:04:00;;;;;;;;;;;;;;;3.84;93.29;94988.78;5113461;28;1078;-63
2023/12/12 00:06:29;;;;;;;;;;;;;;;3.98;92.69;94972.63;5113493;28;976;-63
2023/12/12 00:08:55;;;;;;;;;;;;;;;3.83;93.22;94995.03;5113237;28;1987;-63
2023/12/12 00:11:21;;;;;;;;;;;;;;;3.86;93.27;94995.63;5113574;28;973;-63
2023/12/12 00:13:47;;;;;;;;;;;;;;;4.03;92.78;94990.78;5113554;28;1001;-63
2023/12/12 00:16:13;;;;;;;;;;;;;;;4.06;91.96;94991.38;5113466;28;1066;-63
2023/12/12 00:18:39;;;;;;;;;;;;;;;3.99;92.56;94998.13;5113393;28;968;-63
2023/12/12 00:21:05;;;;;;;;;;;;;;;4.19;91.68;94993.84;5113365;28;1048;-63
2023/12/12 00:23:31;;;;;;;;;;;;;;;4.26;90.36;94987.06;5113093;28;1084;-63
2023/12/12 00:25:57;;;;;;;;;;;;;;;4.38;90.11;94989.66;5116945;28;1060;-63
2023/12/12 00:28:23;;;;;;;;;;;;;;;4.32;90.28;94991.00;5117086;28;2000;-63
2023/12/12 00:30:50;;;;;;;;;;;;;;;4.06;91.38;94986.06;5117503;28;977;-63
2023/12/12 00:33:16;;;;;;;;;;;;;;;3.86;92.95;94992.97;5117208;28;1040;-63
2023/12/12 00:35:42;;;;;;;;;;;;;;;3.96;92.29;94982.47;5117410;28;968;-63
2023/12/12 00:38:08;;;;;;;;;;;;;;;3.84;92.81;94980.84;5117349;28;1009;-62
2023/12/12 00:40:34;;;;;;;;;;;;;;;4.02;92.32;94979.38;5116958;28;1011;-63
2023/12/12 00:43:00;;;;;;;;;;;;;;;3.96;92.69;94971.91;5116853;28;1083;-62
2023/12/12 00:45:26;;;;;;;;;;;;;;;4.06;92.44;94974.63;5116955;28;1043;-62
2023/12/12 00:47:52;;;;;;;;;;;;;;;4.19;91.56;94979.75;5117100;28;1993;-63
2023/12/12 00:50:18;;;;;;;;;;;;;;;4.28;91.32;94982.50;5116768;28;1019;-63
2023/12/12 00:52:44;;;;;;;;;;;;;;;4.37;91.19;94983.53;5115563;28;1084;-63
2023/12/12 00:55:10;;;;;;;;;;;;;;;4.41;91.10;94977.03;5116549;28;1247;-63
2023/12/12 00:57:36;;;;;;;;;;;;;;;4.43;91.01;94990.97;5116952;28;971;-63
2023/12/12 01:00:03;;;;;;;;;;;;;;;4.50;90.56;94994.78;5116793;28;1059;-63
2023/12/12 01:02:29;;;;;;;;;;;;;;;4.50;90.79;95000.09;5116827;28;1169;-63
2023/12/12 01:04:55;;;;;;;;;;;;;;;4.42;91.25;95002.53;5116605;28;963;-63
2023/12/12 01:07:21;;;;;;;;;;;;;;;4.33;92.32;95015.69;5116417;28;1036;-62
2023/12/12 01:09:47;;;;;;;;;;;;;;;4.13;94.17;95019.97;5116667;28;1011;-62
2023/12/12 01:12:13;;;;;;;;;;;;;;;4.02;94.50;95020.81;5116592;28;984;-63
2023/12/12 01:14:39;;;;;;;;;;;;;;;3.98;95.28;95022.88;5116704;28;988;-63
2023/12/12 01:17:05;;;;;;;;;;;;;;;3.89;95.11;95015.72;5116486;28;1043;-63
2023/12/12 01:19:31;;;;;;;;;;;;;;;3.72;95.91;95014.41;5116516;28;959;-63
2023/12/12 01:21:57;;;;;;;;;;;;;;;3.58;96.19;95009.38;5116213;28;1028;-63
2023/12/12 01:24:23;;;;;;;;;;;;;;;3.56;96.69;94996.28;5115935;28;1029;-63
2023/12/12 01:26:49;;;;;;;;;;;;;;;3.74;96.01;95011.63;5116411;28;1042;-63
2023/12/12 01:29:16;;;;;;;;;;;;;;;3.80;95.40;95005.88;5116288;28;1996;-62
2023/12/12 01:31:43;;;;;;;;;;;;;;;3.67;95.97;95013.94;5116419;28;1031;-60
2023/12/12 01:34:09;;;;;;;;;;;;;;;3.70;96.50;95019.81;5116145;28;1043;-61
2023/12/12 01:36:35;;;;;;;;;;;;;;;3.98;94.75;95022.03;5115835;28;969;-62
2023/12/12 01:39:01;;;;;;;;;;;;;;;4.05;93.77;95020.59;5115841;28;963;-62
2023/12/12 01:41:27;;;;;;;;;;;;;;;4.02;93.66;95010.25;5115609;28;1107;-62
2023/12/12 01:43:53;;;;;;;;;;;;;;;4.10;93.58;95002.53;5115957;28;1042;-61
2023/12/12 01:46:20;;;;;;;;;;;;;;;3.94;94.62;95005.56;5115994;28;971;-62
2023/12/12 01:48:46;;;;;;;;;;;;;;;3.86;95.30;95011.50;5115695;28;1906;-63
2023/12/12 01:51:13;;;;;;;;;;;;;;;3.82;94.88;95025.09;5115652;28;1137;-62
2023/12/12 01:53:43;;;;;;;;;;;;;;;3.84;95.25;95017.88;5115504;28;1212;-62
2023/12/12 01:56:10;;;;;;;;;;;;;;;3.96;94.39;95003.66;5115954;28;944;-62
2023/12/12 01:58:37;;;;;;;;;;;;;;;4.05;94.00;95004.72;5115563;28;1044;-62
2023/12/12 02:01:03;;;;;;;;;;;;;;;4.01;94.71;95003.28;5115821;27;1043;-62
2023/12/12 02:03:29;;;;;;;;;;;;;;;3.99;94.56;95005.22;5115510;28;1051;-62
2023/12/12 02:05:59;;;;;;;;;;;;;;;4.02;94.80;95003.19;5115412;28;1040;-62
2023/12/12 02:08:25;;;;;;;;;;;;;;;4.30;93.57;94995.59;5115583;28;1986;-62
2023/12/12 02:10:51;;;;;;;;;;;;;;;4.12;94.12;94976.81;5115682;28;1027;-62
2023/12/12 02:13:17;;;;;;;;;;;;;;;4.15;94.18;94981.00;5115274;28;897;-63
2023/12/12 02:15:43;;;;;;;;;;;;;;;4.19;94.28;94996.50;5115233;28;1052;-62
2023/12/12 02:18:11;;;;;;;;;;;;;;;4.37;93.41;94999.44;5115525;28;976;-62
2023/12/12 02:20:37;;;;;;;;;;;;;;;4.40;92.83;94993.88;5115412;28;1020;-62
2023/12/12 02:23:03;;;;;;;;;;;;;;;4.25;93.57;94996.00;5115323;28;992;-62
2023/12/12 02:25:29;;;;;;;;;;;;;;;4.26;93.39;95004.75;5115241;28;960;-62
2023/12/12 02:27:55;;;;;;;;;;;;;;;4.22;93.71;95013.94;5115094;28;1985;-62
2023/12/12 02:30:21;;;;;;;;;;;;;;;4.18;94.07;95007.22;5114842;28;1036;-62
2023/12/12 02:32:47;;;;;;;;;;;;;;;4.16;94.23;95012.63;5114984;28;952;-62
2023/12/12 02:35:13;;;;;;;;;;;;;;;4.27;93.60;95025.00;5114699;28;1044;-62
2023/12/12 02:37:39;;;;;;;;;;;;;;;4.29;93.42;95008.00;5114773;28;1045;-62
2023/12/12 02:40:05;;;;;;;;;;;;;;;4.19;93.32;95003.59;5114793;28;1083;-62
2023/12/12 02:42:31;;;;;;;;;;;;;;;4.30;93.25;95000.91;5114562;28;1104;-62
2023/12/12 02:44:57;;;;;;;;;;;;;;;4.32;92.87;94996.31;5114612;28;945;-61
2023/12/12 02:47:23;;;;;;;;;;;;;;;4.38;92.09;95002.91;5114412;28;964;-62
2023/12/12 02:49:49;;;;;;;;;;;;;;;4.10;94.05;95008.66;5114766;28;1969;-62
2023/12/12 02:52:15;;;;;;;;;;;;;;;3.86;95.71;95013.31;5114768;28;1154;-62
2023/12/12 02:54:41;;;;;;;;;;;;;;;3.75;97.02;95016.78;5114769;28;1184;-62
2023/12/12 02:57:07;;;;;;;;;;;;;;;3.60;97.97;94994.22;5114573;28;991;-62
2023/12/12 02:59:33;;;;;;;;;;;;;;;3.65;98.36;94992.06;5114558;28;980;-62
2023/12/12 03:01:59;;;;;;;;;;;;;;;4.00;96.39;95023.59;5114326;28;1118;-62
2023/12/12 03:04:25;;;;;;;;;;;;;;;3.94;96.40;95036.50;5114201;28;1036;-62
2023/12/12 03:06:51;;;;;;;;;;;;;;;4.01;95.66;95033.22;5114247;28;1028;-62
2023/12/12 03:09:17;;;;;;;;;;;;;;;4.16;94.66;95017.91;5114270;28;1901;-62
2023/12/12 03:11:44;;;;;;;;;;;;;;;4.30;93.80;95017.59;5114386;28;1007;-62
2023/12/12 03:14:10;;;;;;;;;;;;;;;4.11;94.15;95020.91;5114351;28;991;-62
2023/12/12 03:16:36;;;;;;;;;;;;;;;4.16;94.50;95033.78;5114156;28;976;-62
2023/12/12 03:19:02;;;;;;;;;;;;;;;4.07;94.32;95008.06;5114082;28;1008;-62
2023/12/12 03:21:28;;;;;;;;;;;;;;;3.94;95.58;95002.94;5113922;28;1029;-62
2023/12/12 03:23:59;;;;;;;;;;;;;;;4.03;94.84;94996.91;5114376;28;1016;-61
2023/12/12 03:26:25;;;;;;;;;;;;;;;3.77;96.12;94984.94;5114138;28;1054;-62
2023/12/12 03:28:51;;;;;;;;;;;;;;;3.89;95.84;95008.59;5114167;28;1914;-62
2023/12/12 03:31:17;;;;;;;;;;;;;;;3.89;95.54;94990.09;5114054;28;960;-62
2023/12/12 03:33:43;;;;;;;;;;;;;;;3.73;96.41;94984.34;5113795;28;1040;-62
2023/12/12 03:36:09;;;;;;;;;;;;;;;3.91;95.64;94984.69;5113998;28;977;-62
2023/12/12 03:38:35;;;;;;;;;;;;;;;3.71;96.59;94984.47;5113754;28;1087;-62
2023/12/12 03:41:01;;;;;;;;;;;;;;;3.98;95.69;94996.44;5113776;28;1206;-62
2023/12/12 03:43:27;;;;;;;;;;;;;;;3.91;95.25;94996.09;5113767;28;1054;-62
2023/12/12 03:45:53;;;;;;;;;;;;;;;3.91;96.00;95004.03;5113954;28;985;-61
2023/12/12 03:48:19;;;;;;;;;;;;;;;3.85;96.11;95024.84;5112306;28;1989;-62
2023/12/12 03:50:45;;;;;;;;;;;;;;;3.93;96.61;95033.00;5112308;28;1092;-62
2023/12/12 03:53:11;;;;;;;;;;;;;;;3.91;96.09;95027.00;5113714;28;1004;-62
2023/12/12 03:55:37;;;;;;;;;;;;;;;4.06;95.17;95025.75;5113674;28;1240;-62
2023/12/12 03:58:03;;;;;;;;;;;;;;;4.13;94.49;95025.25;5112477;28;1036;-61
2023/12/12 04:00:29;;;;;;;;;;;;;;;4.21;94.35;95020.16;5116540;28;1052;-62
2023/12/12 04:02:55;;;;;;;;;;;;;;;4.05;94.71;95007.38;5117841;28;992;-61
2023/12/12 04:05:21;;;;;;;;;;;;;;;4.05;94.89;95020.59;5117619;28;964;-61
2023/12/12 04:07:47;;;;;;;;;;;;;;;4.03;95.05;95022.53;5117859;28;1929;-63
2023/12/12 04:10:13;;;;;;;;;;;;;;;4.07;94.89;95023.94;5117597;28;1021;-62
2023/12/12 04:12:39;;;;;;;;;;;;;;;3.98;95.50;95041.41;5117869;28;960;-64
2023/12/12 04:15:05;;;;;;;;;;;;;;;4.19;94.55;95048.56;5117758;28;1012;-63
2023/12/12 04:17:31;;;;;;;;;;;;;;;4.42;93.43;95046.69;5117476;28;1036;-65
2023/12/12 04:19:57;;;;;;;;;;;;;;;4.38;93.33;95047.91;5117440;28;968;-63
2023/12/12 04:22:23;;;;;;;;;;;;;;;4.40;93.62;95048.63;5117652;28;996;-61
2023/12/12 04:24:49;;;;;;;;;;;;;;;4.34;93.62;95039.38;5117403;28;1020;-62
2023/12/12 04:27:15;;;;;;;;;;;;;;;4.46;93.08;95041.03;5117266;28;1029;-64
2023/12/12 04:29:41;;;;;;;;;;;;;;;4.23;93.54;95028.81;5117569;27;1906;-62
2023/12/12 04:32:07;;;;;;;;;;;;;;;4.23;93.88;95036.75;5117612;28;1054;-63
2023/12/12 04:34:33;;;;;;;;;;;;;;;4.36;93.40;95029.50;5117333;28;965;-63
2023/12/12 04:37:01;;;;;;;;;;;;;;;4.38;93.46;95048.78;5116888;28;1067;-64
2023/12/12 04:39:27;;;;;;;;;;;;;;;4.38;93.49;95048.78;5117368;27;1051;-64
2023/12/12 04:41:53;;;;;;;;;;;;;;;4.13;94.62;95035.84;5117068;28;1099;-62
2023/12/12 04:44:19;;;;;;;;;;;;;;;4.09;95.64;95048.47;5117232;28;984;-62
2023/12/12 04:46:45;;;;;;;;;;;;;;;4.16;95.24;95051.47;5117014;28;1036;-64
2023/12/12 04:49:11;;;;;;;;;;;;;;;4.02;95.46;95053.44;5116686;28;1987;-65
2023/12/12 04:51:37;;;;;;;;;;;;;;;3.78;96.71;95045.66;5116680;28;1052;-64
2023/12/12 04:54:03;;;;;;;;;;;;;;;3.68;97.27;95069.34;5116698;28;1149;-63
2023/12/12 04:56:29;;;;;;;;;;;;;;;3.73;97.14;95084.84;5116701;28;1036;-64
2023/12/12 04:58:55;;;;;;;;;;;;;;;3.64;97.67;95082.91;5117118;28;982;-63
2023/12/12 05:01:21;;;;;;;;;;;;;;;3.75;96.77;95077.63;5116650;28;1071;-64
2023/12/12 05:03:47;;;;;;;;;;;;;;;3.69;96.57;95089.53;5115383;28;1123;-64
2023/12/12 05:06:13;;;;;;;;;;;;;;;3.66;96.74;95073.91;5116749;28;1069;-63
2023/12/12 05:08:41;;;;;;;;;;;;;;;3.61;96.96;95086.66;5116806;28;1906;-64
2023/12/12 05:11:08;;;;;;;;;;;;;;;3.73;96.59;95095.41;5116276;28;1047;-64
2023/12/12 05:13:34;;;;;;;;;;;;;;;3.71;96.12;95095.53;5116345;28;1036;-63
2023/12/12 05:16:00;;;;;;;;;;;;;;;3.86;95.26;95069.69;5116408;28;1107;-64
2023/12/12 05:18:26;;;;;;;;;;;;;;;3.92;94.69;95076.28;5116528;28;1310;-59
2023/12/12 05:20:52;;;;;;;;;;;;;;;3.91;94.09;95067.53;5116551;28;1083;-65
2023/12/12 05:23:18;;;;;;;;;;;;;;;3.87;94.46;95078.44;5116159;28;1028;-64
2023/12/12 05:25:45;;;;;;;;;;;;;;;3.72;94.60;95062.84;5116184;28;1111;-61
2023/12/12 05:28:11;;;;;;;;;;;;;;;3.62;95.38;95076.91;5116100;28;1906;-61
2023/12/12 05:30:37;;;;;;;;;;;;;;;3.51;95.65;95080.41;5116430;28;969;-61
2023/12/12 05:33:03;;;;;;;;;;;;;;;3.57;96.19;95095.78;5116074;28;949;-62
2023/12/12 05:35:29;;;;;;;;;;;;;;;3.71;94.92;95102.63;5115932;28;1115;-62
2023/12/12 05:37:54;;;;;;;;;;;;;;;3.88;94.66;95119.81;5116003;28;1004;-62
2023/12/12 05:40:20;;;;;;;;;;;;;;;3.73;94.76;95121.88;5116050;28;1068;-62
2023/12/12 05:42:46;;;;;;;;;;;;;;;3.47;96.82;95110.66;5114653;28;1087;-61
2023/12/12 05:45:12;;;;;;;;;;;;;;;3.52;96.42;95100.59;5115811;28;1055;-62
2023/12/12 05:47:40;;;;;;;;;;;;;;;3.44;96.21;95103.00;5115632;28;1983;-62
2023/12/12 05:50:07;;;;;;;;;;;;;;;3.52;96.39;95090.00;5116064;28;972;-61
2023/12/12 05:52:33;;;;;;;;;;;;;;;3.51;96.33;95091.00;5115553;28;1071;-62
2023/12/12 05:54:59;;;;;;;;;;;;;;;3.57;95.71;95079.94;5115566;28;1161;-61
2023/12/12 05:57:25;;;;;;;;;;;;;;;3.56;95.65;95090.63;5115538;28;1032;-59
2023/12/12 05:59:51;;;;;;;;;;;;;;;3.57;95.69;95087.84;5115656;28;1103;-62
2023/12/12 06:02:17;;;;;;;;;;;;;;;3.55;95.50;95092.44;5115111;28;1068;-62
2023/12/12 06:04:47;;;;;;;;;;;;;;;3.60;95.47;95082.31;5115189;28;1088;-62
2023/12/12 06:07:13;;;;;;;;;;;;;;;3.78;94.81;95081.84;5115133;28;976;-63
2023/12/12 06:09:39;;;;;;;;;;;;;;;3.74;95.46;95083.03;5113774;28;2305;-63
2023/12/12 06:12:06;;;;;;;;;;;;;;;3.96;94.44;95085.66;5115271;28;1104;-63
2023/12/12 06:14:32;;;;;;;;;;;;;;;3.87;94.74;95089.03;5115271;28;941;-62
2023/12/12 06:16:58;;;;;;;;;;;;;;;3.66;95.16;95096.84;5115219;28;1036;-62
2023/12/12 06:19:24;;;;;;;;;;;;;;;3.72;95.07;95085.81;5115060;28;1028;-62
2023/12/12 06:21:53;;;;;;;;;;;;;;;3.83;94.77;95077.00;5114296;28;1064;-62
2023/12/12 06:24:20;;;;;;;;;;;;;;;4.00;93.52;95084.44;5115013;28;1035;-62
2023/12/12 06:26:46;;;;;;;;;;;;;;;4.10;93.65;95097.81;5115131;27;1028;-62
2023/12/12 06:29:13;;;;;;;;;;;;;;;4.19;94.09;95096.19;5114876;28;1910;-62
2023/12/12 06:31:39;;;;;;;;;;;;;;;4.38;93.06;95104.38;5114985;28;948;-63
2023/12/12 06:34:05;;;;;;;;;;;;;;;4.57;91.81;95110.78;5115181;28;960;-63
2023/12/12 06:36:31;;;;;;;;;;;;;;;4.57;91.70;95103.69;5114895;28;964;-62
2023/12/12 06:38:57;;;;;;;;;;;;;;;4.57;92.00;95116.06;5115103;28;1054;-62
2023/12/12 06:41:23;;;;;;;;;;;;;;;4.45;92.36;95129.34;5114515;28;1214;-62
2023/12/12 06:43:50;;;;;;;;;;;;;;;4.53;92.72;95133.19;5114793;28;944;-61
2023/12/12 06:46:19;;;;;;;;;;;;;;;4.77;91.11;95130.34;5114583;28;1047;-62
2023/12/12 06:48:45;;;;;;;;;;;;;;;4.85;90.50;95123.44;5114609;28;1982;-63
2023/12/12 06:51:11;;;;;;;;;;;;;;;4.87;90.42;95141.84;5114834;28;1047;-61
2023/12/12 06:53:37;;;;;;;;;;;;;;;4.58;92.40;95137.16;5114547;28;1312;-63
2023/12/12 06:56:03;;;;;;;;;;;;;;;4.63;91.77;95129.69;5113562;28;1032;-62
2023/12/12 06:58:29;;;;;;;;;;;;;;;5.33;88.39;95143.34;5114513;28;1048;-61
2023/12/12 07:00:55;;;;;;;;;;;;;;;5.72;86.48;95140.91;5114404;28;1028;-61
2023/12/12 07:03:24;;;;;;;;;;;;;;;5.57;86.93;95143.06;5114440;28;1040;-62
2023/12/12 07:05:53;;;;;;;;;;;;;;;5.88;85.80;95148.41;5114563;28;1024;-62
2023/12/12 07:08:19;;;;;;;;;;;;;;;5.81;85.66;95145.44;5114195;28;1913;-62
2023/12/12 07:10:46;;;;;;;;;;;;;;;5.81;85.60;95140.13;5114604;28;1374;-62
2023/12/12 07:13:13;;;;;;;;;;;;;;;6.02;84.69;95137.44;5114431;28;1079;-62
2023/12/12 07:15:40;;;;;;;;;;;;;;;6.65;81.55;95125.75;5114190;28;895;-62
2023/12/12 07:18:11;;;;;;;;;;;;;;;8.56;74.73;95138.13;5114572;28;988;-63
2023/12/12 07:20:37;;;;;;;;;;;;;;;10.35;65.54;95145.09;5114393;28;968;-62
2023/12/12 07:23:06;;;;;;;;;;;;;;;10.59;64.42;95150.72;5113193;28;1011;-61
2023/12/12 07:25:32;;;;;;;;;;;;;;;10.48;63.19;95152.66;5113784;28;904;-62
2023/12/12 07:27:58;;;;;;;;;;;;;;;9.96;64.52;95142.03;5114132;28;1914;-62
2023/12/12 07:30:24;;;;;;;;;;;;;;;8.93;69.14;95155.84;5114186;28;976;-61
2023/12/12 07:32:50;;;;;;;;;;;;;;;7.99;73.09;95156.84;5113980;28;1055;-62
2023/12/12 07:35:16;;;;;;;;;;;;;;;7.36;78.20;95156.53;5113735;28;1032;-62
2023/12/12 07:37:42;;;;;;;;;;;;;;;7.12;78.65;95157.00;5113826;28;1099;-62
2023/12/12 07:40:08;;;;;;;;;;;;;;;6.55;81.73;95164.75;5113856;28;1016;-62
2023/12/12 07:42:34;;;;;;;;;;;;;;;6.55;83.03;95170.06;5113514;28;1242;-61
2023/12/12 07:45:02;;;;;;;;;;;;;;;6.33;84.36;95168.44;5114000;28;1011;-61
2023/12/12 07:47:28;;;;;;;;;;;;;;;6.54;83.80;95171.84;5113662;28;1040;-62
2023/12/12 07:49:55;;;;;;;;;;;;;;;6.48;84.47;95156.47;5113615;28;1898;-61
2023/12/12 07:52:21;;;;;;;;;;;;;;;6.49;84.61;95159.94;5113978;28;1194;-62
2023/12/12 07:54:47;;;;;;;;;;;;;;;6.58;84.58;95159.13;5113622;28;1240;-62
2023/12/12 07:57:13;;;;;;;;;;;;;;;6.66;83.46;95167.28;5113790;28;980;-61
2023/12/12 07:59:39;;;;;;;;;;;;;;;6.73;82.91;95156.94;5113756;28;1000;-61
2023/12/12 08:02:05;;;;;;;;;;;;;;;6.90;82.75;95152.75;5113608;28;1045;-61
2023/12/12 08:04:31;;;;;;;;;;;;;;;6.96;80.47;95155.72;5113428;28;1024;-62
2023/12/12 08:06:57;;;;;;;;;;;;;;;7.05;80.27;95148.72;5113710;28;1052;-62
2023/12/12 08:09:23;;;;;;;;;;;;;;;7.26;79.99;95148.56;5113527;28;1913;-62
2023/12/12 08:11:49;;;;;;;;;;;;;;;7.26;79.24;95143.25;5113379;28;1039;-61
2023/12/12 08:14:16;;;;;;;;;;;;;;;7.37;78.79;95139.63;5113642;28;997;-61
2023/12/12 08:16:42;;;;;;;;;;;;;;;7.32;79.72;95140.06;5111660;28;1731;-61
2023/12/12 08:19:09;;;;;;;;;;;;;;;7.43;79.58;95136.38;5113003;28;1276;-61
2023/12/12 08:21:35;;;;;;;;;;;;;;;7.30;80.93;95125.19;5113240;28;1264;-61
2023/12/12 08:24:03;;;;;;;;;;;;;;;7.34;80.64;95123.91;5112806;28;1228;-61
2023/12/12 08:26:29;;;;;;;;;;;;;;;7.30;81.56;95109.22;5113158;28;1239;-61
2023/12/12 08:28:55;;;;;;;;;;;;;;;7.51;78.64;95109.91;5112774;28;1909;-61
2023/12/12 08:31:23;;;;;;;;;;;;;;;7.66;78.38;95122.75;5112920;28;1278;-61
2023/12/12 08:33:49;;;;;;;;;;;;;;;8.00;77.43;95120.41;5112976;28;1276;-61
2023/12/12 08:36:15;;;;;;;;;;;;;;;8.14;75.65;95121.78;5111757;28;1292;-61
2023/12/12 08:38:45;;;;;;;;;;;;;;;8.01;77.00;95128.25;5112756;28;1248;-61
2023/12/12 08:45:10;;;;;;;;;;;;;;;8.29;75.14;95124.75;5102255;28;1139;-62
2023/12/12 08:47:36;;;;;;;;;;;;;;;8.26;76.03;95136.56;5116844;28;1056;-63
2023/12/12 08:50:03;;;;;;;;;;;;;;;8.42;73.63;95141.28;5116914;28;1913;-64
2023/12/12 08:52:31;;;;;;;;;;;;;;;8.64;73.08;95139.22;5116970;28;1036;-63
2023/12/12 08:54:57;;;;;;;;;;;;;;;8.72;72.38;95126.78;5116857;28;1261;-64
2023/12/12 08:57:23;;;;;;;;;;;;;;;9.09;72.05;95125.84;5116852;28;976;-63
2023/12/12 08:59:49;;;;;;;;;;;;;;;9.45;70.44;95133.81;5117063;28;1012;-62
2023/12/12 09:02:17;;;;;;;;;;;;;;;9.77;68.26;95124.38;5116775;28;1043;-62
2023/12/12 09:04:43;;;;;;;;;;;;;;;9.81;68.25;95127.56;5116700;28;1079;-63
2023/12/12 09:07:09;;;;;;;;;;;;;;;10.19;66.26;95134.31;5116844;28;1209;-63
2023/12/12 09:09:35;;;;;;;;;;;;;;;10.88;63.85;95121.72;5116715;28;1906;-63
2023/12/12 09:12:01;;;;;;;;;;;;;;;11.08;63.14;95129.47;5116601;28;957;-63
2023/12/12 09:14:27;;;;;;;;;;;;;;;11.20;61.11;95135.34;5116434;28;1100;-62
2023/12/12 09:16:53;;;;;;;;;;;;;;;10.73;63.11;95124.19;5116400;28;960;-63
2023/12/12 09:19:19;;;;;;;;;;;;;;;10.64;64.46;95125.19;5116526;28;1076;-61
2023/12/12 09:21:48;;;;;;;;;;;;;;;10.90;63.60;95124.25;5116580;28;1052;-62
2023/12/12 09:24:14;;;;;;;;;;;;;;;11.32;62.27;95120.63;5116239;28;1071;-62
2023/12/12 09:26:40;;;;;;;;;;;;;;;11.44;61.17;95124.66;5116363;28;987;-62
2023/12/12 09:29:06;;;;;;;;;;;;;;;11.77;59.33;95127.31;5116221;28;1997;-62
2023/12/12 09:31:33;;;;;;;;;;;;;;;12.08;59.62;95114.06;5116311;28;964;-62
2023/12/12 09:33:59;;;;;;;;;;;;;;;12.33;58.73;95105.09;5116122;28;1024;-62
2023/12/12 09:36:25;;;;;;;;;;;;;;;12.69;57.45;95098.25;5116121;28;1032;-62
2023/12/12 09:38:51;;;;;;;;;;;;;;;12.81;58.30;95095.19;5116107;28;980;-62
2023/12/12 09:41:21;;;;;;;;;;;;;;;12.70;57.72;95105.28;5114699;28;1286;-61
2023/12/12 09:43:48;;;;;;;;;;;;;;;12.47;58.48;95093.66;5116191;28;968;-62
2023/12/12 09:46:17;;;;;;;;;;;;;;;13.12;58.18;95095.13;5115662;28;1262;-60
2023/12/12 09:48:44;;;;;;;;;;;;;;;13.39;56.44;95101.88;5115711;28;1917;-59
2023/12/12 09:51:12;;;;;;;;;;;;;;;13.28;56.36;95102.25;5115842;28;1107;-59
2023/12/12 09:53:40;;;;;;;;;;;;;;;13.67;56.33;95096.75;5115775;28;1216;-60
2023/12/12 09:56:08;;;;;;;;;;;;;;;13.92;55.22;95084.94;5115998;28;968;-59
2023/12/12 09:58:34;;;;;;;;;;;;;;;13.65;53.93;95079.16;5114526;28;1135;-59
2023/12/12 10:01:02;;;;;;;;;;;;;;;13.17;56.83;95087.41;5115949;28;960;-59
2023/12/12 10:03:28;;;;;;;;;;;;;;;12.85;57.26;95093.81;5115527;28;1071;-59
2023/12/12 10:05:56;;;;;;;;;;;;;;;12.57;58.19;95082.72;5115547;28;1021;-59
2023/12/12 10:08:25;;;;;;;;;;;;;;;12.26;58.86;95067.44;5115679;28;2008;-59
2023/12/12 10:10:52;;;;;;;;;;;;;;;12.29;58.88;95067.06;5115496;28;1050;-59
2023/12/12 10:13:19;;;;;;;;;;;;;;;12.98;58.68;95067.22;5115174;28;984;-58
2023/12/12 10:15:45;;;;;;;;;;;;;;;13.39;54.63;95080.41;5115671;28;963;-59
2023/12/12 10:18:10;;;;;;;;;;;;;;;13.80;54.50;95071.94;5115232;28;1032;-59
2023/12/12 10:20:36;;;;;;;;;;;;;;;13.81;54.29;95067.41;5115553;28;1050;-59
2023/12/12 10:23:03;;;;;;;;;;;;;;;14.08;53.95;95065.13;5115486;28;1059;-59
2023/12/12 10:25:30;;;;;;;;;;;;;;;14.40;52.10;95077.38;5115061;28;1119;-59
2023/12/12 10:27:57;;;;;;;;;;;;;;;14.67;51.40;95085.81;5114924;28;1914;-59
2023/12/12 10:30:23;;;;;;;;;;;;;;;14.84;50.98;95085.41;5115015;27;1067;-59
2023/12/12 10:32:53;;;;;;;;;;;;;;;14.65;51.39;95083.31;5115186;28;1008;-58
2023/12/12 10:35:19;;;;;;;;;;;;;;;14.48;51.68;95084.50;5115534;28;968;-59
2023/12/12 10:37:45;;;;;;;;;;;;;;;14.44;51.59;95076.81;5114859;28;1032;-59
2023/12/12 10:40:18;;;;;;;;;;;;;;;14.44;51.70;95067.91;5114809;28;1046;-59
2023/12/12 10:42:44;;;;;;;;;;;;;;;14.47;51.02;95064.81;5115080;28;972;-59
2023/12/12 10:45:14;;;;;;;;;;;;;;;14.47;51.81;95058.63;5114932;28;1065;-59
2023/12/12 10:47:42;;;;;;;;;;;;;;;14.96;50.24;95072.28;5114759;28;1110;-59
2023/12/12 10:50:14;;;;;;;;;;;;;;;14.67;51.10;95067.81;5114613;28;1985;-59
2023/12/12 10:52:41;;;;;;;;;;;;;;;14.48;50.66;95061.13;5114943;28;973;-59
2023/12/12 10:55:09;;;;;;;;;;;;;;;14.62;51.62;95054.06;5114486;28;1176;-59
2023/12/12 10:57:36;;;;;;;;;;;;;;;14.75;52.45;95053.41;5114714;28;996;-59
2023/12/12 11:00:11;;;;;;;;;;;;;;;14.37;51.30;95058.91;5114762;28;1222;-59
2023/12/12 11:02:38;;;;;;;;;;;;;;;13.84;54.08;95045.56;5114756;28;973;-59
2023/12/12 11:05:05;;;;;;;;;;;;;;;13.22;54.45;95044.75;5114674;28;1007;-59
2023/12/12 11:07:32;;;;;;;;;;;;;;;12.96;54.87;95042.41;5114470;28;1055;-59
2023/12/12 11:09:58;;;;;;;;;;;;;;;13.00;55.88;95041.03;5113846;28;1910;-58
2023/12/12 11:12:26;;;;;;;;;;;;;;;12.95;55.50;95040.72;5114253;28;988;-59
2023/12/12 11:14:54;;;;;;;;;;;;;;;13.23;56.33;95035.66;5114185;28;1092;-60
2023/12/12 11:17:20;;;;;;;;;;;;;;;12.99;55.59;95042.03;5114403;28;995;-60
2023/12/12 11:19:46;;;;;;;;;;;;;;;12.74;56.60;95045.91;5114220;28;993;-59
2023/12/12 11:22:32;;;;;;;;;;;;;;;12.83;58.64;95043.00;5113963;28;1064;-59
2023/12/12 11:24:59;;;;;;;;;;;;;;;12.64;59.64;95046.16;5113951;28;1089;-59
2023/12/12 11:27:25;;;;;;;;;;;;;;;12.46;59.74;95041.88;5113915;28;1118;-59
2023/12/12 11:29:54;;;;;;;;;;;;;;;12.56;59.58;95047.03;5114192;28;1988;-59
2023/12/12 11:32:24;;;;;;;;;;;;;;;12.61;59.60;95044.63;5113879;28;1064;-60
2023/12/12 11:34:51;;;;;;;;;;;;;;;12.67;59.49;95043.94;5113743;28;1040;-59
2023/12/12 11:37:17;;;;;;;;;;;;;;;12.56;60.12;95043.50;5113966;28;984;-59
2023/12/12 11:39:44;;;;;;;;;;;;;;;12.37;59.67;95045.63;5113917;28;1043;-60
2023/12/12 11:42:18;;;;;;;;;;;;;;;12.39;59.73;95042.75;5113705;28;1083;-60
2023/12/12 11:44:54;;;;;;;;;;;;;;;12.35;59.27;95028.88;5113568;28;1225;-60
2023/12/12 11:47:24;;;;;;;;;;;;;;;12.39;58.89;95030.19;5113555;28;1052;-59
2023/12/12 11:50:10;;;;;;;;;;;;;;;12.48;59.02;95028.28;5113798;28;1992;-59
2023/12/12 11:52:39;;;;;;;;;;;;;;;12.43;58.27;95028.00;5113554;28;1107;-60
2023/12/12 11:55:05;;;;;;;;;;;;;;;12.36;58.74;95035.06;5113602;28;1232;-59
2023/12/12 11:57:31;;;;;;;;;;;;;;;12.22;58.44;95033.97;5112331;28;917;-60
2023/12/12 12:00:04;;;;;;;;;;;;;;;12.22;58.16;95039.31;5113739;28;996;-59
2023/12/12 12:02:30;;;;;;;;;;;;;;;12.23;58.00;95036.44;5113740;28;1010;-60
2023/12/12 12:04:57;;;;;;;;;;;;;;;12.20;59.45;95028.75;5113549;28;1032;-59
2023/12/12 12:07:23;;;;;;;;;;;;;;;12.15;59.54;95033.81;5113414;28;1978;-59
2023/12/12 12:09:49;;;;;;;;;;;;;;;12.08;59.22;95025.63;5113678;28;1913;-59
2023/12/12 12:12:17;;;;;;;;;;;;;;;12.13;59.16;95030.47;5113300;28;976;-59
2023/12/12 12:14:43;;;;;;;;;;;;;;;12.14;59.83;95026.78;5112497;28;1032;-59
2023/12/12 12:17:09;;;;;;;;;;;;;;;11.99;59.61;95023.13;5113663;28;1012;-60
2023/12/12 12:19:37;;;;;;;;;;;;;;;12.10;59.31;95025.44;5113606;28;964;-60
2023/12/12 12:22:03;;;;;;;;;;;;;;;12.17;59.08;95031.78;5117356;28;983;-60
2023/12/12 12:24:30;;;;;;;;;;;;;;;12.30;59.28;95032.06;5117314;28;1025;-60
2023/12/12 12:26:57;;;;;;;;;;;;;;;12.37;59.78;95040.25;5117442;28;1043;-60
2023/12/12 12:29:24;;;;;;;;;;;;;;;12.13;60.51;95040.34;5117503;28;1985;-60
2023/12/12 12:31:53;;;;;;;;;;;;;;;12.13;59.54;95041.19;5117637;28;969;-59
2023/12/12 12:34:20;;;;;;;;;;;;;;;12.19;59.92;95039.66;5116155;28;1044;-60
2023/12/12 12:36:46;;;;;;;;;;;;;;;12.24;59.78;95042.66;5117258;28;999;-59
2023/12/12 12:39:16;;;;;;;;;;;;;;;12.17;58.97;95034.47;5117382;28;959;-60
2023/12/12 12:41:43;;;;;;;;;;;;;;;12.05;59.16;95027.81;5117078;28;1028;-60
2023/12/12 12:44:10;;;;;;;;;;;;;;;12.04;59.26;95035.00;5117169;28;1241;-61
2023/12/12 12:46:37;;;;;;;;;;;;;;;12.13;59.16;95025.09;5117392;28;1054;-59
2023/12/12 12:49:03;;;;;;;;;;;;;;;12.21;59.65;95030.41;5116934;28;1914;-60
2023/12/12 12:51:30;;;;;;;;;;;;;;;12.27;60.30;95029.75;5117182;28;1036;-59
2023/12/12 12:53:56;;;;;;;;;;;;;;;12.38;59.42;95033.84;5117080;28;1231;-59
2023/12/12 12:56:22;;;;;;;;;;;;;;;12.28;59.33;95035.94;5116937;28;1080;-59
2023/12/12 12:58:48;;;;;;;;;;;;;;;12.23;59.41;95041.78;5116734;28;1116;-58
2023/12/12 13:01:14;;;;;;;;;;;;;;;12.15;59.49;95044.53;5117023;28;1003;-57
2023/12/12 13:03:41;;;;;;;;;;;;;;;12.16;59.04;95048.88;5116680;28;1088;-57
2023/12/12 13:06:07;;;;;;;;;;;;;;;12.26;59.20;95040.63;5116988;28;1074;-57
2023/12/12 13:08:33;;;;;;;;;;;;;;;12.11;59.84;95041.34;5116485;28;1909;-59